Sunburst, Montana
Current Conditions -  °F | °C
As of 1:56 AM on Friday 19 Dec 2014 (Local Time) from KCTB Reporting Station
Clear Clear  
Wind Chill: 23°   Ceiling: Unl
Heat Index: 32°   Visibility: 10mi
Dew Point: 23°   Wind: 13mph
Humidity: 69%   Direction: 250°WSW
Pressure: 29.85"   Gusts: NA
Location:  48.88°N, 111.91°W
Report Text: KCTB 190856Z AUTO 25011KT 10SM CLR 00/M05 A2985 RMK AO2 SLP130 T00001050 58003
Loading
Personal Weather Stations






























Interactive Weather Map New forecast layout! Learn more

10-Day Weather Forecast

Advertisements
Track Severe Weather on mobile